createdAt,value
2023-05-02T00:00:22.880Z,555.00
2023-05-02T00:01:22.868Z,560.00
2023-05-02T00:02:22.933Z,557.00
2023-05-02T00:03:22.920Z,554.00
2023-05-02T00:04:22.950Z,554.00
2023-05-02T00:05:22.869Z,554.00
2023-05-02T00:06:22.924Z,555.00
2023-05-02T00:07:22.895Z,558.00
2023-05-02T00:08:22.867Z,562.00
2023-05-02T00:09:22.882Z,562.00
2023-05-02T00:10:22.886Z,556.00
2023-05-02T00:11:22.896Z,554.00
2023-05-02T00:12:22.905Z,556.00
2023-05-02T00:13:22.941Z,559.00
2023-05-02T00:14:22.933Z,556.00
2023-05-02T00:15:22.907Z,554.00
2023-05-02T00:16:23.268Z,559.00
2023-05-02T00:17:23.045Z,557.00
2023-05-02T00:18:22.935Z,560.00
2023-05-02T00:19:22.962Z,561.00
2023-05-02T00:20:22.994Z,557.00
2023-05-02T00:21:22.994Z,558.00
2023-05-02T00:22:22.989Z,559.00
2023-05-02T00:23:23.058Z,559.00
2023-05-02T00:24:23.061Z,555.00
2023-05-02T00:25:23.045Z,561.00
2023-05-02T00:26:23.039Z,556.00
2023-05-02T00:27:23.062Z,560.00
2023-05-02T00:28:23.080Z,557.00
2023-05-02T00:29:23.073Z,552.00
2023-05-02T00:30:23.098Z,553.00
2023-05-02T00:31:23.138Z,555.00
2023-05-02T00:32:23.307Z,555.00
2023-05-02T00:33:23.134Z,557.00
2023-05-02T00:34:23.141Z,557.00
2023-05-02T00:35:23.155Z,552.00
2023-05-02T00:36:23.166Z,556.00
2023-05-02T00:37:23.175Z,558.00
2023-05-02T00:38:23.203Z,558.00
2023-05-02T00:39:23.245Z,558.00
2023-05-02T00:40:23.193Z,554.00
2023-05-02T00:41:23.239Z,557.00
2023-05-02T00:42:23.240Z,554.00
2023-05-02T00:43:23.278Z,558.00
2023-05-02T00:44:23.293Z,559.00
2023-05-02T00:45:23.334Z,558.00
2023-05-02T00:46:25.382Z,557.00
2023-05-02T00:47:23.345Z,554.00
2023-05-02T00:48:23.375Z,558.00
2023-05-02T00:49:23.412Z,558.00
2023-05-02T00:50:23.414Z,555.00
2023-05-02T00:51:23.409Z,551.00
2023-05-02T00:52:23.422Z,559.00
2023-05-02T00:53:23.431Z,556.00
2023-05-02T00:54:23.455Z,557.00
2023-05-02T00:55:23.472Z,550.00
2023-05-02T00:56:23.501Z,557.00
2023-05-02T00:57:23.533Z,559.00
2023-05-02T00:58:23.587Z,552.00
2023-05-02T00:59:23.590Z,554.00
2023-05-02T01:00:23.592Z,555.00
2023-05-02T01:01:23.711Z,552.00
2023-05-02T01:02:23.845Z,551.00
2023-05-02T01:03:23.769Z,556.00
2023-05-02T01:04:23.757Z,559.00
2023-05-02T01:05:23.710Z,555.00
2023-05-02T01:06:23.750Z,552.00
2023-05-02T01:07:23.793Z,557.00
2023-05-02T01:08:23.833Z,557.00
2023-05-02T01:09:23.836Z,555.00
2023-05-02T01:10:23.855Z,553.00
2023-05-02T01:11:23.922Z,555.00
2023-05-02T01:12:23.900Z,553.00
2023-05-02T01:13:23.962Z,554.00
2023-05-02T01:14:23.981Z,557.00
2023-05-02T01:15:23.993Z,560.00
2023-05-02T01:16:24.135Z,550.00
2023-05-02T01:17:24.068Z,558.00
2023-05-02T01:18:24.067Z,553.00
2023-05-02T01:19:24.096Z,551.00
2023-05-02T01:20:24.163Z,552.00
2023-05-02T01:21:24.151Z,551.00
2023-05-02T01:22:24.180Z,559.00
2023-05-02T01:23:24.231Z,550.00
2023-05-02T01:24:24.240Z,552.00
2023-05-02T01:25:24.286Z,560.00
2023-05-02T01:26:24.297Z,548.00
2023-05-02T01:27:24.309Z,549.00
2023-05-02T01:28:24.332Z,556.00
2023-05-02T01:29:24.363Z,555.00
2023-05-02T01:30:24.433Z,555.00
2023-05-02T01:31:24.470Z,551.00
2023-05-02T01:32:24.522Z,554.00
2023-05-02T01:33:24.523Z,551.00
2023-05-02T01:34:24.552Z,554.00
2023-05-02T01:35:24.553Z,549.00
2023-05-02T01:36:24.591Z,549.00
2023-05-02T01:37:24.610Z,546.00
2023-05-02T01:38:24.631Z,555.00
2023-05-02T01:39:24.635Z,553.00
2023-05-02T01:40:24.666Z,555.00
2023-05-02T01:41:24.684Z,556.00
2023-05-02T01:42:24.688Z,555.00
2023-05-02T01:43:24.685Z,554.00
2023-05-02T01:44:24.702Z,556.00
2023-05-02T01:45:24.708Z,553.00
2023-05-02T01:46:24.763Z,553.00
2023-05-02T01:47:24.762Z,555.00
2023-05-02T01:48:24.768Z,552.00
2023-05-02T01:49:24.787Z,551.00
2023-05-02T01:50:24.809Z,556.00
2023-05-02T01:51:24.798Z,550.00
2023-05-02T01:52:24.846Z,555.00
2023-05-02T01:53:24.856Z,548.00
2023-05-02T01:54:24.864Z,555.00
2023-05-02T01:55:24.854Z,554.00
2023-05-02T01:56:24.870Z,550.00
2023-05-02T01:57:24.891Z,551.00
2023-05-02T01:58:24.898Z,555.00
2023-05-02T01:59:24.920Z,546.00
2023-05-02T02:00:24.952Z,555.00
2023-05-02T02:01:25.024Z,553.00
2023-05-02T02:02:25.026Z,555.00
2023-05-02T02:03:25.119Z,545.00
2023-05-02T02:04:25.090Z,551.00
2023-05-02T02:05:25.091Z,556.00
2023-05-02T02:06:25.172Z,554.00
2023-05-02T02:07:25.173Z,558.00
2023-05-02T02:08:25.198Z,554.00
2023-05-02T02:09:25.207Z,554.00
2023-05-02T02:10:25.273Z,553.00
2023-05-02T02:11:25.293Z,551.00
2023-05-02T02:12:25.337Z,552.00
2023-05-02T02:13:25.348Z,556.00
2023-05-02T02:14:25.391Z,554.00
2023-05-02T02:15:25.395Z,550.00
2023-05-02T02:16:25.541Z,549.00
2023-05-02T02:17:25.505Z,547.00
2023-05-02T02:18:25.481Z,550.00
2023-05-02T02:19:25.530Z,552.00
2023-05-02T02:20:25.524Z,553.00
2023-05-02T02:21:25.545Z,548.00
2023-05-02T02:22:25.560Z,552.00
2023-05-02T02:23:25.604Z,551.00
2023-05-02T02:24:25.631Z,545.00
2023-05-02T02:25:25.680Z,549.00
2023-05-02T02:26:27.342Z,557.00
2023-05-02T02:27:25.859Z,551.00
2023-05-02T02:28:25.786Z,555.00
2023-05-02T02:29:25.815Z,551.00
2023-05-02T02:30:25.852Z,546.00
2023-05-02T02:31:26.013Z,549.00
2023-05-02T02:32:25.969Z,552.00
2023-05-02T02:33:25.965Z,549.00
2023-05-02T02:34:25.980Z,552.00
2023-05-02T02:35:25.966Z,551.00
2023-05-02T02:36:26.004Z,554.00
2023-05-02T02:37:26.013Z,546.00
2023-05-02T02:38:26.017Z,548.00
2023-05-02T02:39:26.051Z,549.00
2023-05-02T02:40:26.047Z,550.00
2023-05-02T02:41:26.057Z,555.00
2023-05-02T02:42:26.084Z,550.00
2023-05-02T02:43:26.109Z,551.00
2023-05-02T02:44:26.135Z,550.00
2023-05-02T02:45:26.175Z,552.00
2023-05-02T02:46:26.222Z,551.00
2023-05-02T02:47:26.224Z,554.00
2023-05-02T02:48:26.275Z,549.00
2023-05-02T02:49:26.285Z,550.00
2023-05-02T02:50:26.349Z,552.00
2023-05-02T02:51:26.359Z,549.00
2023-05-02T02:52:26.393Z,549.00
2023-05-02T02:53:26.523Z,547.00
2023-05-02T02:54:27.544Z,552.00
2023-05-02T02:55:26.496Z,550.00
2023-05-02T02:56:26.536Z,550.00
2023-05-02T02:57:26.545Z,556.00
2023-05-02T02:58:26.591Z,546.00
2023-05-02T02:59:26.644Z,547.00
2023-05-02T03:00:26.652Z,549.00
2023-05-02T03:01:26.766Z,547.00
2023-05-02T03:02:26.738Z,547.00
2023-05-02T03:03:26.797Z,549.00
2023-05-02T03:04:26.801Z,549.00
2023-05-02T03:05:26.816Z,548.00
2023-05-02T03:06:26.899Z,547.00
2023-05-02T03:07:26.857Z,553.00
2023-05-02T03:08:26.928Z,553.00
2023-05-02T03:09:26.984Z,554.00
2023-05-02T03:10:26.977Z,550.00
2023-05-02T03:11:28.315Z,553.00
2023-05-02T03:12:27.061Z,550.00
2023-05-02T03:13:27.104Z,545.00
2023-05-02T03:14:27.128Z,546.00
2023-05-02T03:15:27.174Z,553.00
2023-05-02T03:16:27.207Z,547.00
2023-05-02T03:17:27.267Z,552.00
2023-05-02T03:18:27.221Z,549.00
2023-05-02T03:19:27.254Z,550.00
2023-05-02T03:20:27.254Z,545.00
2023-05-02T03:21:27.287Z,550.00
2023-05-02T03:22:27.298Z,548.00
2023-05-02T03:23:27.376Z,546.00
2023-05-02T03:24:27.395Z,546.00
2023-05-02T03:25:27.406Z,550.00
2023-05-02T03:26:27.438Z,544.00
2023-05-02T03:27:27.464Z,549.00
2023-05-02T03:28:27.517Z,549.00
2023-05-02T03:29:27.526Z,546.00
2023-05-02T03:30:27.578Z,548.00
2023-05-02T03:31:27.668Z,551.00
2023-05-02T03:32:27.641Z,556.00
2023-05-02T03:33:27.648Z,549.00
2023-05-02T03:34:27.696Z,546.00
2023-05-02T03:35:27.736Z,550.00
2023-05-02T03:36:27.763Z,551.00
2023-05-02T03:37:27.792Z,552.00
2023-05-02T03:38:27.799Z,543.00
2023-05-02T03:39:27.832Z,549.00
2023-05-02T03:40:27.878Z,545.00
2023-05-02T03:41:28.020Z,546.00
2023-05-02T03:42:27.938Z,549.00
2023-05-02T03:43:27.987Z,548.00
2023-05-02T03:44:28.012Z,543.00
2023-05-02T03:45:28.033Z,543.00
2023-05-02T03:46:29.896Z,549.00
2023-05-02T03:47:28.143Z,550.00
2023-05-02T03:48:28.152Z,544.00
2023-05-02T03:49:28.190Z,549.00
2023-05-02T03:50:28.225Z,552.00
2023-05-02T03:51:28.222Z,550.00
2023-05-02T03:52:28.280Z,546.00
2023-05-02T03:53:28.288Z,549.00
2023-05-02T03:54:28.335Z,548.00
2023-05-02T03:55:28.389Z,549.00
2023-05-02T03:56:28.407Z,551.00
2023-05-02T03:57:28.441Z,548.00
2023-05-02T03:58:28.490Z,547.00
2023-05-02T03:59:28.514Z,546.00
2023-05-02T04:00:28.545Z,550.00
2023-05-02T04:01:28.611Z,551.00
2023-05-02T04:02:28.697Z,550.00
2023-05-02T04:03:29.812Z,547.00
2023-05-02T04:04:28.699Z,549.00
2023-05-02T04:05:28.724Z,548.00
2023-05-02T04:06:28.783Z,544.00
2023-05-02T04:07:28.797Z,544.00
2023-05-02T04:08:28.831Z,543.00
2023-05-02T04:09:28.858Z,541.00
2023-05-02T04:10:28.897Z,547.00
2023-05-02T04:11:28.893Z,549.00
2023-05-02T04:12:28.908Z,545.00
2023-05-02T04:13:29.059Z,549.00
2023-05-02T04:14:28.985Z,544.00
2023-05-02T04:15:29.045Z,548.00
2023-05-02T04:16:29.092Z,543.00
2023-05-02T04:17:29.158Z,548.00
2023-05-02T04:18:29.117Z,541.00
2023-05-02T04:19:29.154Z,549.00
2023-05-02T04:20:29.197Z,544.00
2023-05-02T04:21:29.227Z,549.00
2023-05-02T04:22:29.257Z,546.00
2023-05-02T04:23:29.278Z,547.00
2023-05-02T04:24:29.320Z,548.00
2023-05-02T04:25:29.389Z,548.00
2023-05-02T04:26:29.381Z,542.00
2023-05-02T04:27:29.410Z,546.00
2023-05-02T04:28:29.435Z,548.00
2023-05-02T04:29:29.567Z,541.00
2023-05-02T04:30:29.495Z,546.00
2023-05-02T04:31:29.598Z,548.00
2023-05-02T04:32:29.631Z,542.00
2023-05-02T04:33:29.602Z,545.00
2023-05-02T04:34:29.618Z,544.00
2023-05-02T04:35:29.638Z,545.00
2023-05-02T04:36:29.668Z,547.00
2023-05-02T04:37:29.731Z,549.00
2023-05-02T04:38:29.748Z,544.00
2023-05-02T04:39:29.770Z,546.00
2023-05-02T04:40:29.796Z,548.00
2023-05-02T04:41:29.826Z,543.00
2023-05-02T04:42:29.878Z,542.00
2023-05-02T04:43:29.846Z,546.00
2023-05-02T04:44:29.879Z,544.00
2023-05-02T04:45:29.915Z,545.00
2023-05-02T04:46:30.005Z,541.00
2023-05-02T04:47:30.016Z,543.00
2023-05-02T04:48:29.961Z,546.00
2023-05-02T04:49:29.993Z,545.00
2023-05-02T04:50:30.024Z,540.00
2023-05-02T04:51:29.995Z,544.00
2023-05-02T04:52:30.065Z,541.00
2023-05-02T04:53:30.057Z,542.00
2023-05-02T04:54:30.363Z,541.00
2023-05-02T04:55:30.077Z,542.00
2023-05-02T04:56:30.101Z,543.00
2023-05-02T04:57:30.159Z,545.00
2023-05-02T04:58:30.158Z,540.00
2023-05-02T04:59:30.145Z,542.00
2023-05-02T05:00:30.212Z,536.00
2023-05-02T05:01:30.301Z,544.00
2023-05-02T05:02:30.319Z,542.00
2023-05-02T05:03:30.331Z,539.00
2023-05-02T05:04:30.274Z,540.00
2023-05-02T05:05:30.372Z,538.00
2023-05-02T05:06:30.364Z,532.00
2023-05-02T05:07:30.315Z,535.00
2023-05-02T05:08:30.353Z,540.00
2023-05-02T05:09:30.413Z,536.00
2023-05-02T05:10:30.421Z,539.00
2023-05-02T05:11:30.453Z,538.00
2023-05-02T05:12:30.861Z,540.00
2023-05-02T05:13:30.545Z,539.00
2023-05-02T05:14:30.550Z,537.00
2023-05-02T05:15:30.589Z,542.00
2023-05-02T05:16:30.672Z,539.00
2023-05-02T05:17:30.725Z,536.00
2023-05-02T05:18:30.693Z,535.00
2023-05-02T05:19:30.721Z,537.00
2023-05-02T05:20:30.746Z,535.00
2023-05-02T05:21:30.908Z,537.00
2023-05-02T05:22:30.853Z,532.00
2023-05-02T05:23:30.880Z,535.00
2023-05-02T05:24:30.946Z,536.00
2023-05-02T05:25:30.976Z,536.00
2023-05-02T05:26:30.951Z,531.00
2023-05-02T05:27:31.373Z,538.00
2023-05-02T05:28:31.069Z,534.00
2023-05-02T05:29:31.370Z,531.00
2023-05-02T05:30:31.091Z,538.00
2023-05-02T05:31:31.165Z,539.00
2023-05-02T05:32:31.231Z,532.00
2023-05-02T05:33:31.268Z,535.00
2023-05-02T05:34:31.449Z,538.00
2023-05-02T05:35:31.358Z,539.00
2023-05-02T05:36:31.367Z,548.00
2023-05-02T05:37:31.366Z,557.00
2023-05-02T05:38:31.334Z,569.00
2023-05-02T05:39:31.436Z,573.00
2023-05-02T05:40:31.496Z,581.00
2023-05-02T05:41:31.478Z,584.00
2023-05-02T05:42:31.432Z,584.00
2023-05-02T05:43:32.443Z,562.00
2023-05-02T05:44:31.506Z,549.00
2023-05-02T05:45:31.509Z,552.00
2023-05-02T05:46:31.722Z,547.00
2023-05-02T05:47:31.723Z,547.00
2023-05-02T05:48:31.659Z,536.00
2023-05-02T05:49:31.941Z,516.00
2023-05-02T05:50:31.708Z,540.00
2023-05-02T05:51:31.684Z,580.00
2023-05-02T05:52:31.686Z,577.00
2023-05-02T05:53:31.648Z,575.00
2023-05-02T05:54:32.372Z,578.00
2023-05-02T05:55:31.700Z,590.00
2023-05-02T05:56:31.764Z,593.00
2023-05-02T05:57:31.863Z,602.00
2023-05-02T05:58:31.824Z,612.00
2023-05-02T05:59:31.892Z,624.00
2023-05-02T06:00:31.939Z,630.00
2023-05-02T06:01:32.926Z,649.00
2023-05-02T06:02:32.070Z,659.00
2023-05-02T06:03:32.103Z,669.00
2023-05-02T06:04:32.099Z,693.00
2023-05-02T06:05:32.157Z,709.00
2023-05-02T06:06:32.161Z,744.00
2023-05-02T06:07:32.152Z,771.00
2023-05-02T06:08:32.180Z,798.00
2023-05-02T06:09:32.208Z,827.00
2023-05-02T06:10:32.252Z,848.00
2023-05-02T06:11:32.913Z,853.00
2023-05-02T06:12:32.334Z,872.00
2023-05-02T06:13:32.522Z,930.00
2023-05-02T06:14:32.474Z,945.00
2023-05-02T06:15:32.536Z,958.00
2023-05-02T06:16:32.701Z,1011.00
2023-05-02T06:17:32.729Z,1022.00
2023-05-02T06:18:32.834Z,1044.00
2023-05-02T06:19:32.821Z,1130.00
2023-05-02T06:20:32.825Z,1116.00
2023-05-02T06:21:32.899Z,1104.00
2023-05-02T06:22:32.968Z,1121.00
2023-05-02T06:23:33.033Z,1144.00
2023-05-02T06:24:33.270Z,1204.00
2023-05-02T06:25:33.080Z,1214.00
2023-05-02T06:26:33.153Z,1225.00
2023-05-02T06:27:33.758Z,1221.00
2023-05-02T06:28:33.369Z,1243.00
2023-05-02T06:29:33.403Z,1232.00
2023-05-02T06:30:33.319Z,1262.00
2023-05-02T06:31:33.485Z,1243.00
2023-05-02T06:32:33.502Z,1249.00
2023-05-02T06:33:33.500Z,1252.00
2023-05-02T06:34:33.539Z,1237.00
2023-05-02T06:35:33.598Z,1251.00
2023-05-02T06:36:33.664Z,1259.00
2023-05-02T06:37:34.060Z,1189.00
2023-05-02T06:38:33.795Z,753.00
2023-05-02T06:39:33.876Z,619.00
2023-05-02T06:40:33.866Z,590.00
2023-05-02T06:41:33.946Z,661.00
2023-05-02T06:42:33.950Z,657.00
2023-05-02T06:43:34.034Z,664.00
2023-05-02T06:44:34.059Z,659.00
2023-05-02T06:45:34.130Z,661.00
2023-05-02T06:46:34.218Z,664.00
2023-05-02T06:47:34.264Z,659.00
2023-05-02T06:48:34.252Z,650.00
2023-05-02T06:49:34.293Z,657.00
2023-05-02T06:50:34.359Z,660.00
2023-05-02T06:51:34.375Z,680.00
2023-05-02T06:52:34.464Z,678.00
2023-05-02T06:53:34.495Z,702.00
2023-05-02T06:54:34.494Z,685.00
2023-05-02T06:55:34.491Z,664.00
2023-05-02T06:56:34.539Z,669.00
2023-05-02T06:57:34.566Z,685.00
2023-05-02T06:58:34.606Z,702.00
2023-05-02T06:59:34.592Z,690.00
2023-05-02T07:00:34.658Z,677.00
2023-05-02T07:01:34.742Z,713.00
2023-05-02T07:02:34.767Z,746.00
2023-05-02T07:03:34.753Z,744.00
2023-05-02T07:04:34.797Z,736.00
2023-05-02T07:05:34.809Z,750.00
2023-05-02T07:06:34.835Z,764.00
2023-05-02T07:07:34.905Z,764.00
2023-05-02T07:08:34.870Z,759.00
2023-05-02T07:09:34.888Z,763.00
2023-05-02T07:10:34.996Z,765.00
2023-05-02T07:11:34.947Z,788.00
2023-05-02T07:12:35.114Z,937.00
2023-05-02T07:13:34.994Z,900.00
2023-05-02T07:14:35.038Z,862.00
2023-05-02T07:15:35.091Z,846.00
2023-05-02T07:16:35.297Z,834.00
2023-05-02T07:17:35.172Z,830.00
2023-05-02T07:18:35.885Z,842.00
2023-05-02T07:19:35.164Z,853.00
2023-05-02T07:20:35.130Z,851.00
2023-05-02T07:21:35.173Z,849.00
2023-05-02T07:22:35.247Z,851.00
2023-05-02T07:23:35.179Z,846.00
2023-05-02T07:24:35.242Z,872.00
2023-05-02T07:25:35.226Z,881.00
2023-05-02T07:26:35.227Z,891.00
2023-05-02T07:27:35.248Z,890.00
2023-05-02T07:28:35.257Z,894.00
2023-05-02T07:29:35.323Z,894.00
2023-05-02T07:30:35.288Z,892.00
2023-05-02T07:31:35.313Z,903.00
2023-05-02T07:32:35.425Z,887.00
2023-05-02T07:33:35.364Z,895.00
2023-05-02T07:34:35.500Z,912.00
2023-05-02T07:35:35.377Z,927.00
2023-05-02T07:36:35.405Z,940.00
2023-05-02T07:37:35.409Z,938.00
2023-05-02T07:38:35.394Z,967.00
2023-05-02T07:39:35.430Z,985.00
2023-05-02T07:40:35.375Z,974.00
2023-05-02T07:41:35.402Z,970.00
2023-05-02T07:42:35.393Z,989.00
2023-05-02T07:43:35.363Z,972.00
2023-05-02T07:44:35.422Z,974.00
2023-05-02T07:45:35.375Z,965.00
2023-05-02T07:46:35.417Z,953.00
2023-05-02T07:47:35.426Z,966.00
2023-05-02T07:48:35.449Z,969.00
2023-05-02T07:49:35.461Z,968.00
2023-05-02T07:50:35.430Z,968.00
2023-05-02T07:51:35.453Z,977.00
2023-05-02T07:52:35.465Z,981.00
2023-05-02T07:53:35.488Z,990.00
2023-05-02T07:54:35.563Z,981.00
2023-05-02T07:55:35.940Z,984.00
2023-05-02T07:56:35.483Z,982.00
2023-05-02T07:57:36.079Z,970.00
2023-05-02T07:58:35.481Z,935.00
2023-05-02T07:59:35.503Z,932.00
2023-05-02T08:00:35.467Z,944.00
2023-05-02T08:01:35.485Z,943.00
2023-05-02T08:02:35.581Z,942.00
2023-05-02T08:03:35.727Z,953.00
2023-05-02T08:04:35.574Z,955.00
2023-05-02T08:05:37.460Z,940.00
2023-05-02T08:06:35.682Z,946.00
2023-05-02T08:07:36.636Z,951.00
2023-05-02T08:08:35.556Z,954.00
2023-05-02T08:09:35.529Z,945.00
2023-05-02T08:10:35.543Z,946.00
2023-05-02T08:11:35.539Z,874.00
2023-05-02T08:12:35.577Z,708.00
2023-05-02T08:13:35.539Z,604.00
2023-05-02T08:14:35.568Z,616.00
2023-05-02T08:15:35.932Z,604.00
2023-05-02T08:16:35.668Z,603.00
2023-05-02T08:17:35.669Z,626.00
2023-05-02T08:18:35.630Z,654.00
2023-05-02T08:19:35.661Z,656.00
2023-05-02T08:20:35.936Z,662.00
2023-05-02T08:21:35.670Z,660.00
2023-05-02T08:22:35.743Z,665.00
2023-05-02T08:23:35.720Z,654.00
2023-05-02T08:24:35.846Z,661.00
2023-05-02T08:25:35.828Z,688.00
2023-05-02T08:26:35.811Z,669.00
2023-05-02T08:27:35.858Z,661.00
2023-05-02T08:28:35.853Z,665.00
2023-05-02T08:29:35.916Z,665.00
2023-05-02T08:30:35.887Z,668.00
2023-05-02T08:31:35.987Z,669.00
2023-05-02T08:32:36.489Z,661.00
2023-05-02T08:33:35.944Z,664.00
2023-05-02T08:34:35.957Z,665.00
2023-05-02T08:35:36.039Z,666.00
2023-05-02T08:36:35.978Z,659.00
2023-05-02T08:37:36.092Z,660.00
2023-05-02T08:38:36.049Z,658.00
2023-05-02T08:39:36.094Z,661.00
2023-05-02T08:40:41.552Z,648.00
2023-05-02T08:41:37.062Z,649.00
2023-05-02T08:42:36.473Z,649.00
2023-05-02T08:43:36.050Z,656.00
2023-05-02T08:44:36.074Z,664.00
2023-05-02T08:45:36.037Z,703.00
2023-05-02T08:46:36.162Z,730.00
2023-05-02T08:47:36.074Z,753.00
2023-05-02T08:48:35.999Z,755.00
2023-05-02T08:49:35.993Z,785.00
2023-05-02T08:50:35.998Z,817.00
2023-05-02T08:51:36.678Z,840.00
2023-05-02T08:52:35.986Z,853.00
2023-05-02T08:53:35.987Z,872.00
2023-05-02T08:54:36.007Z,909.00
2023-05-02T08:55:35.977Z,939.00
2023-05-02T08:56:35.945Z,967.00
2023-05-02T08:57:35.937Z,970.00
2023-05-02T08:58:36.308Z,1019.00
2023-05-02T08:59:35.933Z,1078.00
2023-05-02T09:00:35.932Z,1101.00
2023-05-02T09:01:35.991Z,1120.00
2023-05-02T09:02:35.979Z,1150.00
2023-05-02T09:03:35.923Z,1157.00
2023-05-02T09:04:35.996Z,1167.00
2023-05-02T09:05:35.986Z,1214.00
2023-05-02T09:06:35.911Z,1248.00
2023-05-02T09:07:35.877Z,1236.00
2023-05-02T09:08:35.882Z,1243.00
2023-05-02T09:09:35.854Z,1261.00
2023-05-02T09:10:35.831Z,1241.00
2023-05-02T09:11:35.835Z,1272.00
2023-05-02T09:12:35.852Z,1258.00
2023-05-02T09:13:35.920Z,1273.00
2023-05-02T09:14:35.842Z,1282.00
2023-05-02T09:15:35.906Z,1387.00
2023-05-02T09:16:36.005Z,1361.00
2023-05-02T09:17:36.080Z,1357.00
2023-05-02T09:18:36.073Z,1235.00
2023-05-02T09:19:36.140Z,1079.00
2023-05-02T09:20:36.201Z,956.00
2023-05-02T09:21:36.164Z,845.00
2023-05-02T09:22:36.167Z,822.00
2023-05-02T09:23:36.213Z,763.00
2023-05-02T09:24:36.177Z,774.00
2023-05-02T09:25:36.180Z,905.00
2023-05-02T09:26:36.184Z,977.00
2023-05-02T09:27:36.187Z,1033.00
2023-05-02T09:28:36.218Z,1092.00
2023-05-02T09:29:36.580Z,1108.00
2023-05-02T09:30:36.289Z,1176.00
2023-05-02T09:32:36.290Z,1232.00
2023-05-02T09:33:36.424Z,1167.00
2023-05-02T09:34:36.293Z,1155.00
2023-05-02T09:35:36.292Z,1150.00
2023-05-02T09:36:36.291Z,1141.00
2023-05-02T09:37:36.317Z,1145.00
2023-05-02T09:38:36.482Z,1069.00
2023-05-02T09:39:36.371Z,606.00
2023-05-02T09:40:36.323Z,605.00
2023-05-02T09:41:36.347Z,589.00
2023-05-02T09:42:36.409Z,550.00
2023-05-02T09:43:36.445Z,540.00
2023-05-02T09:44:36.451Z,519.00
2023-05-02T09:45:37.036Z,501.00
2023-05-02T09:46:36.624Z,501.00
2023-05-02T09:47:36.775Z,495.00
2023-05-02T09:48:36.672Z,500.00
2023-05-02T09:49:36.699Z,501.00
2023-05-02T09:50:37.557Z,500.00
2023-05-02T09:51:36.802Z,508.00
2023-05-02T09:52:36.906Z,499.00
2023-05-02T09:53:36.981Z,509.00
2023-05-02T09:54:37.066Z,500.00
2023-05-02T09:55:37.028Z,507.00
2023-05-02T09:56:37.116Z,527.00
2023-05-02T09:57:37.140Z,538.00
2023-05-02T09:58:37.268Z,555.00
2023-05-02T09:59:37.292Z,591.00
2023-05-02T10:00:37.290Z,590.00
2023-05-02T10:01:37.423Z,614.00
2023-05-02T10:02:37.870Z,639.00
2023-05-02T10:03:37.464Z,648.00
2023-05-02T10:04:37.581Z,654.00
2023-05-02T10:05:37.554Z,654.00
2023-05-02T10:06:37.615Z,659.00
2023-05-02T10:07:37.633Z,668.00
2023-05-02T10:08:37.624Z,688.00
2023-05-02T10:09:37.650Z,692.00
2023-05-02T10:10:37.952Z,704.00
2023-05-02T10:11:37.755Z,720.00
2023-05-02T10:12:37.802Z,728.00
2023-05-02T10:13:37.838Z,748.00
2023-05-02T10:14:37.875Z,761.00
2023-05-02T10:15:37.961Z,758.00
2023-05-02T10:16:37.950Z,765.00
2023-05-02T10:17:38.148Z,777.00
2023-05-02T10:18:38.471Z,793.00
2023-05-02T10:19:38.116Z,813.00
2023-05-02T10:20:38.239Z,792.00
2023-05-02T10:21:38.176Z,741.00
2023-05-02T10:22:38.203Z,647.00
2023-05-02T10:23:38.220Z,609.00
2023-05-02T10:24:38.261Z,588.00
2023-05-02T10:25:38.344Z,573.00
2023-05-02T10:26:38.444Z,498.00
2023-05-02T10:27:38.438Z,504.00
2023-05-02T10:28:39.558Z,533.00
2023-05-02T10:29:38.550Z,563.00
2023-05-02T10:30:38.567Z,562.00
2023-05-02T10:31:38.676Z,624.00
2023-05-02T10:32:38.694Z,674.00
2023-05-02T10:33:38.700Z,732.00
2023-05-02T10:34:38.718Z,782.00
2023-05-02T10:35:38.822Z,835.00
2023-05-02T10:36:38.842Z,864.00
2023-05-02T10:37:38.863Z,843.00
2023-05-02T10:38:38.922Z,1010.00
2023-05-02T10:39:38.967Z,1019.00
2023-05-02T10:40:39.078Z,1023.00
2023-05-02T10:41:39.015Z,1034.00
2023-05-02T10:42:39.217Z,1064.00
2023-05-02T10:43:39.148Z,1058.00
2023-05-02T10:44:39.090Z,1100.00
2023-05-02T10:45:39.152Z,1123.00
2023-05-02T10:46:39.180Z,1160.00
2023-05-02T10:47:39.146Z,1179.00
2023-05-02T10:48:39.133Z,1212.00
2023-05-02T10:49:39.127Z,2327.00
2023-05-02T10:50:39.359Z,2058.00
2023-05-02T10:51:39.191Z,1779.00
2023-05-02T10:52:39.125Z,1605.00
2023-05-02T10:53:39.161Z,1486.00
2023-05-02T10:54:39.210Z,1450.00
2023-05-02T10:55:39.224Z,1439.00
2023-05-02T10:56:39.141Z,1446.00
2023-05-02T10:57:39.137Z,1453.00
2023-05-02T10:58:39.715Z,1451.00
2023-05-02T10:59:39.124Z,1473.00
2023-05-02T11:00:39.166Z,1487.00
2023-05-02T11:01:39.115Z,3378.00
2023-05-02T11:02:39.209Z,2780.00
2023-05-02T11:03:39.179Z,2289.00
2023-05-02T11:04:39.203Z,1881.00
2023-05-02T11:05:39.160Z,1735.00
2023-05-02T11:06:39.171Z,1676.00
2023-05-02T11:07:39.146Z,1672.00
2023-05-02T11:08:39.177Z,1671.00
2023-05-02T11:09:39.215Z,1736.00
2023-05-02T11:10:39.219Z,1727.00
2023-05-02T11:11:39.256Z,1754.00
2023-05-02T11:12:39.257Z,1732.00
2023-05-02T11:13:39.260Z,1776.00
2023-05-02T11:14:39.309Z,1743.00
2023-05-02T11:15:39.251Z,1678.00
2023-05-02T11:16:39.298Z,1566.00
2023-05-02T11:17:39.381Z,1643.00
2023-05-02T11:18:39.356Z,1568.00
2023-05-02T11:19:39.244Z,1578.00
2023-05-02T11:20:39.271Z,1577.00
2023-05-02T11:21:39.363Z,1577.00
2023-05-02T11:22:39.357Z,1600.00
2023-05-02T11:23:39.288Z,1580.00
2023-05-02T11:24:39.291Z,1597.00
2023-05-02T11:25:39.299Z,1599.00
2023-05-02T11:26:39.279Z,1588.00
2023-05-02T11:27:39.351Z,1588.00
2023-05-02T11:28:39.321Z,1578.00
2023-05-02T11:29:39.346Z,1571.00
2023-05-02T11:30:39.412Z,1575.00
2023-05-02T11:31:39.434Z,1573.00
2023-05-02T11:32:39.449Z,1552.00
2023-05-02T11:33:39.417Z,1557.00
2023-05-02T11:34:39.476Z,1563.00
2023-05-02T11:35:39.593Z,1538.00
2023-05-02T11:36:39.493Z,1490.00
2023-05-02T11:37:39.505Z,1499.00
2023-05-02T11:38:39.549Z,1446.00
2023-05-02T11:39:39.569Z,1461.00
2023-05-02T11:40:39.671Z,1472.00
2023-05-02T11:41:39.618Z,1473.00
2023-05-02T11:42:39.679Z,1477.00
2023-05-02T11:43:39.694Z,1466.00
2023-05-02T11:44:39.721Z,1405.00
2023-05-02T11:45:40.081Z,1438.00
2023-05-02T11:46:39.970Z,1411.00
2023-05-02T11:47:39.862Z,1389.00
2023-05-02T11:48:39.993Z,1400.00
2023-05-02T11:49:39.937Z,1360.00
2023-05-02T11:50:41.822Z,1358.00
2023-05-02T11:51:39.969Z,1340.00
2023-05-02T11:52:39.913Z,1348.00
2023-05-02T11:53:39.913Z,1334.00
2023-05-02T11:54:39.917Z,1335.00
2023-05-02T11:55:39.922Z,1323.00
2023-05-02T11:56:39.876Z,1339.00
2023-05-02T11:57:39.877Z,1317.00
2023-05-02T11:58:40.504Z,1310.00
2023-05-02T11:59:39.912Z,1303.00
2023-05-02T12:00:40.025Z,1295.00
2023-05-02T12:01:39.901Z,1304.00
2023-05-02T12:02:39.965Z,1281.00
2023-05-02T12:03:40.275Z,1279.00
2023-05-02T12:04:39.854Z,1261.00
2023-05-02T12:05:39.865Z,1252.00
2023-05-02T12:06:39.962Z,1239.00
2023-05-02T12:07:39.799Z,1229.00
2023-05-02T12:08:40.088Z,1220.00
2023-05-02T12:09:39.822Z,1196.00
2023-05-02T12:10:39.806Z,1205.00
2023-05-02T12:11:39.836Z,1181.00
2023-05-02T12:12:39.765Z,1185.00
2023-05-02T12:13:39.879Z,1179.00
2023-05-02T12:14:39.761Z,1172.00
2023-05-02T12:15:39.746Z,1126.00
2023-05-02T12:16:39.904Z,1127.00
2023-05-02T12:17:39.846Z,1115.00
2023-05-02T12:18:40.008Z,1122.00
2023-05-02T12:19:39.716Z,1086.00
2023-05-02T12:20:40.565Z,1116.00
2023-05-02T12:21:39.705Z,1141.00
2023-05-02T12:22:39.701Z,1111.00
2023-05-02T12:23:39.705Z,1100.00
2023-05-02T12:24:39.677Z,1113.00